Time;durP1;ratioP1;P1;durP2;ratioP2;P2;SDS_P1;SDS_P2;PMS_P1;PMS_P2;Temp;Humidity;BMP_temperature;BMP_pressure;BME280_temperature;BME280_humidity;BME280_pressure;Samples;Min_cycle;Max_cycle;Signal;HPM_P1;HPM_P2
2021/03/19 00:00:14;;;;;;;27.60;18.20;;;;;;;;;;4973919;28;20270;-79
2021/03/19 00:02:41;;;;;;;27.23;18.05;;;;;;;;;;4973909;28;20535;-78
2021/03/19 00:05:10;;;;;;;25.60;18.15;;;;;;;;;;4973579;28;20210;-78
2021/03/19 00:07:49;;;;;;;25.40;16.45;;;;;;;;;;4973880;28;20180;-79
2021/03/19 00:10:17;;;;;;;23.38;16.13;;;;;;;;;;4973674;28;20199;-81
2021/03/19 00:12:43;;;;;;;24.92;18.30;;;;;;;;;;4974008;28;20191;-78
2021/03/19 00:15:10;;;;;;;24.33;17.98;;;;;;;;;;4973208;28;20202;-80
2021/03/19 00:17:36;;;;;;;22.02;18.92;;;;;;;;;;4973852;28;20172;-78
2021/03/19 00:20:02;;;;;;;22.02;16.55;;;;;;;;;;4972576;28;20227;-80
2021/03/19 00:22:28;;;;;;;20.77;16.70;;;;;;;;;;4973555;28;20184;-78
2021/03/19 00:24:54;;;;;;;17.50;14.77;;;;;;;;;;4973257;28;20701;-79
2021/03/19 00:27:20;;;;;;;19.30;15.18;;;;;;;;;;4973695;28;20577;-79
2021/03/19 00:29:46;;;;;;;23.07;16.50;;;;;;;;;;4973590;28;20223;-78
2021/03/19 00:32:12;;;;;;;21.52;15.60;;;;;;;;;;4973487;28;20418;-80
2021/03/19 00:34:38;;;;;;;18.40;15.98;;;;;;;;;;4971784;28;20186;-80
2021/03/19 00:37:04;;;;;;;21.20;16.47;;;;;;;;;;4973427;28;20562;-78
2021/03/19 00:39:30;;;;;;;21.55;16.77;;;;;;;;;;4973464;28;20773;-79
2021/03/19 00:41:56;;;;;;;25.67;16.90;;;;;;;;;;4973530;28;20180;-80
2021/03/19 00:44:22;;;;;;;21.80;16.00;;;;;;;;;;4973562;28;20176;-78
2021/03/19 00:46:48;;;;;;;25.30;18.45;;;;;;;;;;4971737;28;20214;-79
2021/03/19 00:49:14;;;;;;;32.03;17.30;;;;;;;;;;4972096;28;20212;-79
2021/03/19 00:51:40;;;;;;;22.35;17.27;;;;;;;;;;4973673;28;20177;-79
2021/03/19 00:54:06;;;;;;;22.42;18.23;;;;;;;;;;4973503;28;20182;-78
2021/03/19 00:56:32;;;;;;;24.15;17.90;;;;;;;;;;4973027;28;20200;-80
2021/03/19 00:58:58;;;;;;;21.05;16.73;;;;;;;;;;4972062;28;20210;-80
2021/03/19 01:01:24;;;;;;;37.40;18.92;;;;;;;;;;4973352;28;20206;-78
2021/03/19 01:03:50;;;;;;;25.77;18.00;;;;;;;;;;4971967;28;20183;-78
2021/03/19 01:06:16;;;;;;;26.00;17.77;;;;;;;;;;4976352;28;20207;-79
2021/03/19 01:08:42;;;;;;;27.70;18.27;;;;;;;;;;4976656;28;20283;-79
2021/03/19 01:11:08;;;;;;;24.20;16.95;;;;;;;;;;4975362;28;20422;-81
2021/03/19 01:13:35;;;;;;;27.40;18.80;;;;;;;;;;4976656;28;20261;-79
2021/03/19 01:16:01;;;;;;;24.33;18.75;;;;;;;;;;4976305;28;20259;-78
2021/03/19 01:18:29;;;;;;;29.75;19.65;;;;;;;;;;4975280;28;20181;-80
2021/03/19 01:20:55;;;;;;;28.98;19.88;;;;;;;;;;4976244;28;20482;-79
2021/03/19 01:23:21;;;;;;;26.38;19.48;;;;;;;;;;4975103;28;20194;-79
2021/03/19 01:25:47;;;;;;;32.42;21.73;;;;;;;;;;4976065;28;20199;-79
2021/03/19 01:28:15;;;;;;;28.83;20.10;;;;;;;;;;4976459;28;20182;-80
2021/03/19 01:30:41;;;;;;;34.10;22.52;;;;;;;;;;4974992;28;20701;-80
2021/03/19 01:33:07;;;;;;;30.58;20.73;;;;;;;;;;4976240;28;20183;-79
2021/03/19 01:35:34;;;;;;;29.20;21.42;;;;;;;;;;4975651;28;20604;-78
2021/03/19 01:38:00;;;;;;;27.38;21.48;;;;;;;;;;4975219;28;20186;-78
2021/03/19 01:40:29;;;;;;;33.10;21.70;;;;;;;;;;4976453;28;20241;-79
2021/03/19 01:43:14;;;;;;;28.10;20.88;;;;;;;;;;4959058;28;20190;-79
2021/03/19 01:45:59;;;;;;;33.72;22.02;;;;;;;;;;4974565;28;20207;-79
2021/03/19 01:48:44;;;;;;;28.65;20.70;;;;;;;;;;4974729;28;20183;-79
2021/03/19 01:51:28;;;;;;;34.25;21.33;;;;;;;;;;4975917;28;20196;-79
2021/03/19 01:54:13;;;;;;;29.05;20.80;;;;;;;;;;4974755;28;20189;-79
2021/03/19 01:56:57;;;;;;;27.85;20.75;;;;;;;;;;4975512;28;20200;-78
2021/03/19 01:59:42;;;;;;;26.48;19.25;;;;;;;;;;4975697;28;20177;-78
2021/03/19 02:02:26;;;;;;;27.25;19.75;;;;;;;;;;4975887;28;20269;-77
2021/03/19 02:05:11;;;;;;;28.92;20.48;;;;;;;;;;4975395;28;20173;-78
2021/03/19 02:07:55;;;;;;;24.42;17.25;;;;;;;;;;4975730;28;20535;-80
2021/03/19 02:10:40;;;;;;;31.88;19.92;;;;;;;;;;4975513;28;20209;-79
2021/03/19 02:13:24;;;;;;;34.95;21.73;;;;;;;;;;4975437;28;20559;-80
2021/03/19 02:16:09;;;;;;;29.08;18.92;;;;;;;;;;4973458;28;20563;-78
2021/03/19 02:18:54;;;;;;;28.42;19.90;;;;;;;;;;4974137;28;20530;-79
2021/03/19 02:21:38;;;;;;;32.20;21.60;;;;;;;;;;4974052;28;20180;-79
2021/03/19 02:24:23;;;;;;;34.92;21.15;;;;;;;;;;4975314;28;20174;-80
2021/03/19 02:27:08;;;;;;;31.92;21.77;;;;;;;;;;4975048;28;20672;-79
2021/03/19 02:29:53;;;;;;;31.15;21.02;;;;;;;;;;4975022;28;20300;-79
2021/03/19 02:32:26;;;;;;;33.63;21.77;;;;;;;;;;4975332;28;20626;-79
2021/03/19 02:34:55;;;;;;;30.88;21.60;;;;;;;;;;4974826;28;20183;-79
2021/03/19 02:37:23;;;;;;;29.40;21.95;;;;;;;;;;4975070;28;20196;-79
2021/03/19 02:39:49;;;;;;;32.05;20.63;;;;;;;;;;4975088;28;20535;-80
2021/03/19 02:42:18;;;;;;;32.13;19.90;;;;;;;;;;4975204;28;20185;-79
2021/03/19 02:44:44;;;;;;;31.55;21.20;;;;;;;;;;4973607;28;20668;-79
2021/03/19 02:47:11;;;;;;;27.98;19.80;;;;;;;;;;4974895;28;20189;-79
2021/03/19 02:49:38;;;;;;;29.17;19.15;;;;;;;;;;4973495;28;20212;-80
2021/03/19 02:52:04;;;;;;;28.27;20.40;;;;;;;;;;4974864;28;20177;-79
2021/03/19 02:54:30;;;;;;;27.98;21.00;;;;;;;;;;4974553;28;20181;-80
2021/03/19 02:56:56;;;;;;;28.05;19.50;;;;;;;;;;4974773;28;20232;-78
2021/03/19 02:59:22;;;;;;;37.30;21.25;;;;;;;;;;4973321;28;20188;-78
2021/03/19 03:01:48;;;;;;;31.17;20.20;;;;;;;;;;4974683;28;20182;-80
2021/03/19 03:04:15;;;;;;;35.10;23.50;;;;;;;;;;4973481;28;20197;-79
2021/03/19 03:06:47;;;;;;;31.38;19.08;;;;;;;;;;4974332;28;20208;-79
2021/03/19 03:09:16;;;;;;;32.28;20.95;;;;;;;;;;4974622;28;20205;-79
2021/03/19 03:11:42;;;;;;;28.75;20.00;;;;;;;;;;4974352;28;20633;-80
2021/03/19 03:14:09;;;;;;;29.35;19.10;;;;;;;;;;4974511;28;20184;-80
2021/03/19 03:16:35;;;;;;;28.42;19.23;;;;;;;;;;4974042;28;20288;-79
2021/03/19 03:19:02;;;;;;;30.33;20.50;;;;;;;;;;4974504;28;20548;-81
2021/03/19 03:21:28;;;;;;;29.63;19.83;;;;;;;;;;4974372;28;20653;-78
2021/03/19 03:23:55;;;;;;;32.35;20.65;;;;;;;;;;4974170;28;20186;-80
2021/03/19 03:26:21;;;;;;;37.80;20.88;;;;;;;;;;4973846;28;20205;-80
2021/03/19 03:28:47;;;;;;;30.67;21.30;;;;;;;;;;4973804;28;20211;-79
2021/03/19 03:31:13;;;;;;;29.70;19.93;;;;;;;;;;4974419;28;20596;-77
2021/03/19 03:33:41;;;;;;;29.08;19.55;;;;;;;;;;4974059;28;20423;-79
2021/03/19 03:36:08;;;;;;;29.92;20.30;;;;;;;;;;4972302;28;20723;-79
2021/03/19 03:38:34;;;;;;;32.33;21.77;;;;;;;;;;4974219;28;20186;-79
2021/03/19 03:41:02;;;;;;;32.15;21.67;;;;;;;;;;4974200;28;20188;-78
2021/03/19 03:43:28;;;;;;;38.78;22.67;;;;;;;;;;4974264;28;20223;-79
2021/03/19 03:45:54;;;;;;;35.63;22.05;;;;;;;;;;4973539;28;20571;-79
2021/03/19 03:48:22;;;;;;;35.70;23.02;;;;;;;;;;4973740;28;20184;-79
2021/03/19 03:50:48;;;;;;;33.70;19.25;;;;;;;;;;4974187;28;20286;-78
2021/03/19 03:53:15;;;;;;;38.75;23.42;;;;;;;;;;4973960;28;20192;-80
2021/03/19 03:55:41;;;;;;;35.92;23.25;;;;;;;;;;4972536;28;20677;-78
2021/03/19 03:58:08;;;;;;;35.97;23.23;;;;;;;;;;4973783;28;20231;-79
2021/03/19 04:00:34;;;;;;;38.92;24.00;;;;;;;;;;4973874;28;20645;-79
2021/03/19 04:03:01;;;;;;;37.17;23.08;;;;;;;;;;4973934;28;20191;-78
2021/03/19 04:05:30;;;;;;;35.70;23.55;;;;;;;;;;4972005;28;20273;-80
2021/03/19 04:07:56;;;;;;;32.10;21.90;;;;;;;;;;4973847;28;20216;-79
2021/03/19 04:10:23;;;;;;;34.05;22.55;;;;;;;;;;4973647;28;20211;-79
2021/03/19 04:12:49;;;;;;;40.28;24.38;;;;;;;;;;4956607;28;20272;-78
2021/03/19 04:15:16;;;;;;;38.20;23.95;;;;;;;;;;4973478;28;20288;-78
2021/03/19 04:17:43;;;;;;;49.58;25.15;;;;;;;;;;4972553;28;20238;-78
2021/03/19 04:20:11;;;;;;;38.85;24.65;;;;;;;;;;4972189;28;20185;-80
2021/03/19 04:22:38;;;;;;;38.72;24.17;;;;;;;;;;4973654;28;20180;-78
2021/03/19 04:25:06;;;;;;;38.55;24.02;;;;;;;;;;4973353;28;20227;-78
2021/03/19 04:27:44;;;;;;;41.22;23.75;;;;;;;;;;4973657;28;20204;-79
2021/03/19 04:30:16;;;;;;;35.28;23.67;;;;;;;;;;4973527;28;20228;-79
2021/03/19 04:32:42;;;;;;;41.80;27.20;;;;;;;;;;4973544;28;20180;-78
2021/03/19 04:35:08;;;;;;;37.92;25.55;;;;;;;;;;4973227;28;20201;-79
2021/03/19 04:37:34;;;;;;;39.97;26.10;;;;;;;;;;4973434;28;20189;-80
2021/03/19 04:40:00;;;;;;;46.40;27.15;;;;;;;;;;4976939;28;20192;-79
2021/03/19 04:42:26;;;;;;;38.75;24.60;;;;;;;;;;4975887;28;20180;-79
2021/03/19 04:44:52;;;;;;;38.20;25.05;;;;;;;;;;4976815;28;20182;-78
2021/03/19 04:47:18;;;;;;;47.92;25.00;;;;;;;;;;4975859;28;20533;-79
2021/03/19 04:49:44;;;;;;;45.95;26.35;;;;;;;;;;4976196;28;20211;-79
2021/03/19 04:52:10;;;;;;;42.92;27.50;;;;;;;;;;4977031;28;20208;-79
2021/03/19 04:54:36;;;;;;;49.40;29.95;;;;;;;;;;4976615;28;20220;-80
2021/03/19 04:57:03;;;;;;;50.78;29.33;;;;;;;;;;4977150;28;20183;-79
2021/03/19 04:59:29;;;;;;;43.17;26.52;;;;;;;;;;4975549;28;20189;-78
2021/03/19 05:01:59;;;;;;;49.53;29.02;;;;;;;;;;4977148;28;20577;-79
2021/03/19 05:04:26;;;;;;;49.78;29.73;;;;;;;;;;4976804;28;20180;-79
2021/03/19 05:06:56;;;;;;;51.00;29.38;;;;;;;;;;4976632;28;20224;-80
2021/03/19 05:09:22;;;;;;;47.28;28.95;;;;;;;;;;4975608;28;20294;-79
2021/03/19 05:11:48;;;;;;;45.72;27.50;;;;;;;;;;4975532;28;20214;-79
2021/03/19 05:14:15;;;;;;;47.00;30.45;;;;;;;;;;4975583;28;20183;-78
2021/03/19 05:16:41;;;;;;;49.72;27.40;;;;;;;;;;4976007;28;20228;-79
2021/03/19 05:19:06;;;;;;;41.78;26.73;;;;;;;;;;4959254;28;20216;-79
2021/03/19 05:21:33;;;;;;;51.87;29.50;;;;;;;;;;4976499;28;20279;-79
2021/03/19 05:23:59;;;;;;;47.00;28.92;;;;;;;;;;4959108;28;20481;-79
2021/03/19 05:26:24;;;;;;;43.20;28.45;;;;;;;;;;4976076;28;20609;-79
2021/03/19 05:28:51;;;;;;;50.90;28.25;;;;;;;;;;4976172;28;20254;-79
2021/03/19 05:31:17;;;;;;;51.28;28.13;;;;;;;;;;4976396;28;20199;-79
2021/03/19 05:33:45;;;;;;;48.03;29.55;;;;;;;;;;4959373;28;20212;-79
2021/03/19 05:36:11;;;;;;;42.83;28.80;;;;;;;;;;4975633;28;20216;-80
2021/03/19 05:38:37;;;;;;;44.97;30.20;;;;;;;;;;4974837;28;20183;-79
2021/03/19 05:41:04;;;;;;;45.60;27.13;;;;;;;;;;4976185;28;20180;-79
2021/03/19 05:43:35;;;;;;;46.90;28.73;;;;;;;;;;4976154;28;20181;-78
2021/03/19 05:46:20;;;;;;;39.90;25.77;;;;;;;;;;4975982;28;20199;-79
2021/03/19 05:48:49;;;;;;;46.50;28.55;;;;;;;;;;4975758;28;20180;-79
2021/03/19 05:51:35;;;;;;;51.50;30.65;;;;;;;;;;4975170;28;20227;-79
2021/03/19 05:54:06;;;;;;;43.15;27.38;;;;;;;;;;4975890;28;20248;-79
2021/03/19 05:56:32;;;;;;;52.08;26.45;;;;;;;;;;4974320;28;20200;-79
2021/03/19 05:58:59;;;;;;;45.22;27.73;;;;;;;;;;4974639;28;20181;-79
2021/03/19 06:01:25;;;;;;;41.67;26.83;;;;;;;;;;4975765;28;20254;-79
2021/03/19 06:03:51;;;;;;;46.47;27.60;;;;;;;;;;4974571;28;20185;-79
2021/03/19 06:06:18;;;;;;;48.17;28.35;;;;;;;;;;4975296;28;20212;-79
2021/03/19 06:08:47;;;;;;;49.63;29.88;;;;;;;;;;4975593;28;20697;-79
2021/03/19 06:11:22;;;;;;;44.47;28.38;;;;;;;;;;4974357;28;20226;-79
2021/03/19 06:14:01;;;;;;;53.38;30.63;;;;;;;;;;4975523;28;20172;-79
2021/03/19 06:16:30;;;;;;;51.63;32.10;;;;;;;;;;4973919;28;20210;-79
2021/03/19 06:18:57;;;;;;;50.22;29.60;;;;;;;;;;4975369;28;20181;-79
2021/03/19 06:21:23;;;;;;;55.33;32.22;;;;;;;;;;4972131;28;20471;-78
2021/03/19 06:24:01;;;;;;;54.85;30.42;;;;;;;;;;4972277;28;20177;-80
2021/03/19 06:26:30;;;;;;;60.10;33.03;;;;;;;;;;4973192;28;20200;-79
2021/03/19 06:29:11;;;;;;;50.88;31.83;;;;;;;;;;4968706;28;20323;-79
2021/03/19 06:31:39;;;;;;;49.33;29.05;;;;;;;;;;4962226;28;20583;-77
2021/03/19 06:34:14;;;;;;;63.50;31.63;;;;;;;;;;4973411;28;20659;-76
2021/03/19 06:36:51;;;;;;;53.70;29.83;;;;;;;;;;4968190;28;20271;-78
2021/03/19 06:39:25;;;;;;;43.30;27.52;;;;;;;;;;4973844;28;20180;-79
2021/03/19 06:42:10;;;;;;;54.78;30.73;;;;;;;;;;4974217;28;20527;-80
2021/03/19 06:44:36;;;;;;;47.38;29.05;;;;;;;;;;4972863;28;20181;-79
2021/03/19 06:47:04;;;;;;;47.78;27.80;;;;;;;;;;4974746;28;20349;-80
2021/03/19 06:49:46;;;;;;;44.97;27.30;;;;;;;;;;4973920;28;20550;-80
2021/03/19 06:52:21;;;;;;;38.10;25.40;;;;;;;;;;4974627;28;20180;-79
2021/03/19 06:54:50;;;;;;;49.40;27.08;;;;;;;;;;4973048;28;20191;-80
2021/03/19 06:57:19;;;;;;;44.17;26.58;;;;;;;;;;4973631;28;20488;-80
2021/03/19 06:59:45;;;;;;;40.40;25.75;;;;;;;;;;4973711;28;20181;-80
2021/03/19 07:02:20;;;;;;;43.50;26.38;;;;;;;;;;4974616;28;20179;-79
2021/03/19 07:04:46;;;;;;;41.28;26.90;;;;;;;;;;4973325;28;20645;-80
2021/03/19 07:07:18;;;;;;;38.97;25.90;;;;;;;;;;4974701;28;20220;-78
2021/03/19 07:10:01;;;;;;;45.95;24.65;;;;;;;;;;4974621;28;20258;-77
2021/03/19 07:12:46;;;;;;;40.22;23.33;;;;;;;;;;4974686;28;20173;-79
2021/03/19 07:15:12;;;;;;;34.42;23.63;;;;;;;;;;4974047;28;20256;-80
2021/03/19 07:17:38;;;;;;;46.90;25.23;;;;;;;;;;4974023;28;20178;-79
2021/03/19 07:20:04;;;;;;;42.15;23.95;;;;;;;;;;4974381;28;20181;-79
2021/03/19 07:22:36;;;;;;;35.42;23.52;;;;;;;;;;4974365;28;20184;-80
2021/03/19 07:25:03;;;;;;;43.10;24.10;;;;;;;;;;4974216;28;20196;-80
2021/03/19 07:27:49;;;;;;;46.47;27.00;;;;;;;;;;4974185;28;20224;-79
2021/03/19 07:30:29;;;;;;;39.10;25.15;;;;;;;;;;4974101;28;20258;-79
2021/03/19 07:33:08;;;;;;;36.72;24.77;;;;;;;;;;4974055;28;20992;-80
2021/03/19 07:35:38;;;;;;;40.90;21.08;;;;;;;;;;4973557;28;20204;-79
2021/03/19 07:38:25;;;;;;;46.95;27.63;;;;;;;;;;4974021;28;20644;-79
2021/03/19 07:41:00;;;;;;;43.72;24.52;;;;;;;;;;4974447;28;20319;-79
2021/03/19 07:43:44;;;;;;;35.90;24.58;;;;;;;;;;4973728;28;20673;-79
2021/03/19 07:46:15;;;;;;;39.20;24.48;;;;;;;;;;4972072;28;20207;-80
2021/03/19 07:48:50;;;;;;;43.38;25.10;;;;;;;;;;4972723;28;20180;-80
2021/03/19 07:51:16;;;;;;;37.97;25.60;;;;;;;;;;4974359;28;20186;-81
2021/03/19 07:53:42;;;;;;;38.20;24.70;;;;;;;;;;4974079;28;20530;-80
2021/03/19 07:56:11;;;;;;;43.38;26.58;;;;;;;;;;4973602;28;20431;-81
2021/03/19 07:58:50;;;;;;;36.92;23.88;;;;;;;;;;4972770;28;20191;-80
2021/03/19 08:01:19;;;;;;;43.28;25.45;;;;;;;;;;4973710;28;20266;-80
2021/03/19 08:03:47;;;;;;;38.30;25.42;;;;;;;;;;4973807;28;20672;-81
2021/03/19 08:06:15;;;;;;;35.70;26.00;;;;;;;;;;4972161;28;20565;-80
2021/03/19 08:08:52;;;;;;;56.10;33.95;;;;;;;;;;4972680;28;20221;-80
2021/03/19 08:11:23;;;;;;;43.83;27.45;;;;;;;;;;4974012;28;20191;-80
2021/03/19 08:13:49;;;;;;;34.95;22.98;;;;;;;;;;4973546;28;20183;-80
2021/03/19 08:16:15;;;;;;;37.33;23.80;;;;;;;;;;4977101;28;20200;-80
2021/03/19 08:18:49;;;;;;;49.95;30.50;;;;;;;;;;4977700;28;20248;-80
2021/03/19 08:21:18;;;;;;;35.53;23.10;;;;;;;;;;4976536;28;20658;-80
2021/03/19 08:23:53;;;;;;;28.90;21.67;;;;;;;;;;4977644;28;20245;-80
2021/03/19 08:26:27;;;;;;;34.83;27.48;;;;;;;;;;4977047;28;20298;-80
2021/03/19 08:28:53;;;;;;;31.65;21.95;;;;;;;;;;4977778;28;20186;-80
2021/03/19 08:31:28;;;;;;;25.73;19.17;;;;;;;;;;4977509;28;20176;-79
2021/03/19 08:34:07;;;;;;;27.38;19.98;;;;;;;;;;4976054;28;20269;-80
2021/03/19 08:36:41;;;;;;;30.70;18.75;;;;;;;;;;4975321;28;20212;-80
2021/03/19 08:39:26;;;;;;;24.30;15.02;;;;;;;;;;4967070;28;20173;-79
2021/03/19 08:41:54;;;;;;;18.98;15.27;;;;;;;;;;4966269;28;20176;-78
2021/03/19 08:44:23;;;;;;;18.58;13.65;;;;;;;;;;4977102;28;20640;-79
2021/03/19 08:46:53;;;;;;;17.85;13.30;;;;;;;;;;4976715;28;20195;-78
2021/03/19 08:49:25;;;;;;;13.57;9.85;;;;;;;;;;4977258;28;20625;-78
2021/03/19 08:51:53;;;;;;;16.83;12.57;;;;;;;;;;4975791;28;20655;-78
2021/03/19 08:54:20;;;;;;;23.20;13.90;;;;;;;;;;4976841;28;20210;-78
2021/03/19 08:56:50;;;;;;;24.40;13.23;;;;;;;;;;4976559;28;20195;-79
2021/03/19 08:59:34;;;;;;;19.63;12.40;;;;;;;;;;4976716;28;20641;-79
2021/03/19 09:02:18;;;;;;;24.70;12.52;;;;;;;;;;4975537;28;20215;-79
2021/03/19 09:04:51;;;;;;;14.07;10.02;;;;;;;;;;4975137;28;20239;-78
2021/03/19 09:07:29;;;;;;;12.15;8.90;;;;;;;;;;4972203;28;20191;-78
2021/03/19 09:09:56;;;;;;;11.50;9.20;;;;;;;;;;4975402;28;20266;-78
2021/03/19 09:12:29;;;;;;;9.50;8.25;;;;;;;;;;4976571;28;20176;-78
2021/03/19 09:15:14;;;;;;;34.05;9.27;;;;;;;;;;4976266;28;20199;-79
2021/03/19 09:17:44;;;;;;;13.80;8.25;;;;;;;;;;4976588;28;20652;-78
2021/03/19 09:20:28;;;;;;;8.65;6.72;;;;;;;;;;4976452;28;20259;-79
2021/03/19 09:23:15;;;;;;;7.38;6.47;;;;;;;;;;4975067;28;20251;-79
2021/03/19 09:25:52;;;;;;;7.03;6.32;;;;;;;;;;4974686;28;20200;-78
2021/03/19 09:28:38;;;;;;;9.30;6.90;;;;;;;;;;4975993;28;20618;-78
2021/03/19 09:31:07;;;;;;;7.23;6.43;;;;;;;;;;4976446;28;20247;-78
2021/03/19 09:33:45;;;;;;;8.73;7.30;;;;;;;;;;4976583;28;20427;-78
2021/03/19 09:36:30;;;;;;;6.90;6.10;;;;;;;;;;4974441;28;20534;-78
2021/03/19 09:38:56;;;;;;;6.80;6.03;;;;;;;;;;4976038;28;20421;-78
2021/03/19 09:41:45;;;;;;;5.50;4.90;;;;;;;;;;4976368;28;20420;-77
2021/03/19 09:44:37;;;;;;;11.40;5.95;;;;;;;;;;4973175;28;20430;-78
2021/03/19 09:47:03;;;;;;;7.88;6.07;;;;;;;;;;4975008;28;20192;-77
2021/03/19 09:49:29;;;;;;;8.65;5.20;;;;;;;;;;4975912;28;20543;-79
2021/03/19 09:51:55;;;;;;;6.60;5.90;;;;;;;;;;4976184;28;20189;-78
2021/03/19 09:54:31;;;;;;;6.60;5.30;;;;;;;;;;4974683;28;20416;-78
2021/03/19 09:57:03;;;;;;;9.18;5.00;;;;;;;;;;4976016;28;20485;-78
2021/03/19 09:59:30;;;;;;;6.90;5.47;;;;;;;;;;4976156;28;20625;-79
2021/03/19 10:01:57;;;;;;;6.68;5.43;;;;;;;;;;4975820;28;20193;-77
2021/03/19 10:04:49;;;;;;;6.20;5.40;;;;;;;;;;4975383;28;20180;-78
2021/03/19 10:07:19;;;;;;;6.10;5.10;;;;;;;;;;4974553;28;20188;-80
2021/03/19 10:09:47;;;;;;;8.57;4.78;;;;;;;;;;4974435;28;20219;-77
2021/03/19 10:12:18;;;;;;;5.00;4.35;;;;;;;;;;4975530;28;20176;-77
2021/03/19 10:14:49;;;;;;;5.65;3.80;;;;;;;;;;4974978;28;20300;-80
2021/03/19 10:17:17;;;;;;;3.65;3.25;;;;;;;;;;4974408;28;20180;-78
2021/03/19 10:19:44;;;;;;;4.22;3.38;;;;;;;;;;4975400;28;20687;-80
2021/03/19 10:22:10;;;;;;;7.45;3.20;;;;;;;;;;4973806;28;20596;-79
2021/03/19 10:24:37;;;;;;;12.10;3.63;;;;;;;;;;4974570;28;20223;-78
2021/03/19 10:27:09;;;;;;;4.90;3.40;;;;;;;;;;4974908;28;20412;-79
2021/03/19 10:29:36;;;;;;;4.80;3.23;;;;;;;;;;4972783;28;20478;-78
2021/03/19 10:32:10;;;;;;;4.80;3.70;;;;;;;;;;4974854;28;20416;-78
2021/03/19 10:34:51;;;;;;;4.45;3.40;;;;;;;;;;4972524;28;20487;-80
2021/03/19 10:37:24;;;;;;;4.30;3.70;;;;;;;;;;4972591;28;20409;-78
2021/03/19 10:39:50;;;;;;;4.75;4.05;;;;;;;;;;4972026;28;20187;-78
2021/03/19 10:42:36;;;;;;;5.40;3.87;;;;;;;;;;4974630;28;20176;-78
2021/03/19 10:45:20;;;;;;;7.60;5.82;;;;;;;;;;4960243;28;21014;-78
2021/03/19 10:47:50;;;;;;;7.88;5.53;;;;;;;;;;4974034;28;20253;-78
2021/03/19 10:50:20;;;;;;;4.40;3.20;;;;;;;;;;4974282;28;20211;-78
2021/03/19 10:52:48;;;;;;;7.28;3.25;;;;;;;;;;4973092;28;20536;-78
2021/03/19 10:55:16;;;;;;;4.70;3.10;;;;;;;;;;4973651;28;20200;-78
2021/03/19 10:57:42;;;;;;;5.15;2.88;;;;;;;;;;4973808;28;20187;-77
2021/03/19 11:00:27;;;;;;;3.20;2.50;;;;;;;;;;4974202;28;20184;-81
2021/03/19 11:02:54;;;;;;;2.77;2.23;;;;;;;;;;4974142;28;20184;-80
2021/03/19 11:05:21;;;;;;;4.63;2.70;;;;;;;;;;4974243;28;20431;-77
2021/03/19 11:07:47;;;;;;;2.73;2.13;;;;;;;;;;4974656;28;20408;-77
2021/03/19 11:10:31;;;;;;;3.50;2.80;;;;;;;;;;4957282;28;20467;-75
2021/03/19 11:13:18;;;;;;;4.10;3.17;;;;;;;;;;4974559;28;20995;-78
2021/03/19 11:15:49;;;;;;;4.53;2.90;;;;;;;;;;4974134;28;20514;-77
2021/03/19 11:18:31;;;;;;;6.90;4.70;;;;;;;;;;4974526;28;20400;-78
2021/03/19 11:21:02;;;;;;;2.80;2.50;;;;;;;;;;4973055;28;20419;-77
2021/03/19 11:23:32;;;;;;;5.40;3.63;;;;;;;;;;4974243;28;20760;-79
2021/03/19 11:25:59;;;;;;;4.17;3.10;;;;;;;;;;4969757;28;20791;-78
2021/03/19 11:28:30;;;;;;;4.23;2.57;;;;;;;;;;4953879;29;20416;-78
2021/03/19 11:31:12;;;;;;;2.57;2.37;;;;;;;;;;4954815;29;20451;-79
2021/03/19 11:33:53;;;;;;;3.20;2.13;;;;;;;;;;4954912;29;20789;-80
2021/03/19 11:36:19;;;;;;;3.47;2.20;;;;;;;;;;4953114;29;20487;-78
2021/03/19 11:38:46;;;;;;;2.73;2.00;;;;;;;;;;4954866;29;20408;-79
2021/03/19 11:41:31;;;;;;;3.03;2.60;;;;;;;;;;4953505;29;20421;-79
2021/03/19 11:43:58;;;;;;;2.23;2.03;;;;;;;;;;4954744;29;20409;-77
2021/03/19 11:46:24;;;;;;;3.90;2.20;;;;;;;;;;4954324;29;20826;-78
2021/03/19 11:48:50;;;;;;;3.10;2.30;;;;;;;;;;4954191;29;20404;-78
2021/03/19 11:51:27;;;;;;;2.73;1.90;;;;;;;;;;4953180;29;21027;-78
2021/03/19 11:53:53;;;;;;;2.33;1.87;;;;;;;;;;4954576;28;20408;-78
2021/03/19 11:56:20;;;;;;;2.90;1.80;;;;;;;;;;4954254;29;20431;-78
2021/03/19 11:58:46;;;;;;;2.67;1.83;;;;;;;;;;4953428;29;20459;-79
2021/03/19 12:01:12;;;;;;;2.60;1.53;;;;;;;;;;4954520;29;20452;-78
2021/03/19 12:03:40;;;;;;;2.97;2.13;;;;;;;;;;4954168;29;20409;-78
2021/03/19 12:06:07;;;;;;;3.00;2.27;;;;;;;;;;4952122;29;20804;-79
2021/03/19 12:08:35;;;;;;;3.00;2.00;;;;;;;;;;4953250;29;20424;-78
2021/03/19 12:11:01;;;;;;;1.80;1.70;;;;;;;;;;4953461;28;20956;-78
2021/03/19 12:13:27;;;;;;;2.07;1.87;;;;;;;;;;4953537;29;20429;-78
2021/03/19 12:15:53;;;;;;;2.23;1.70;;;;;;;;;;4953915;29;20439;-78
2021/03/19 12:18:20;;;;;;;5.73;1.90;;;;;;;;;;4954438;29;20420;-78
2021/03/19 12:20:47;;;;;;;1.70;1.53;;;;;;;;;;4954297;29;20409;-77
2021/03/19 12:23:13;;;;;;;17.30;3.50;;;;;;;;;;4954366;29;20918;-77
2021/03/19 12:25:39;;;;;;;2.83;1.93;;;;;;;;;;4953813;29;20428;-77
2021/03/19 12:28:06;;;;;;;2.13;1.67;;;;;;;;;;4961195;28;20430;-76
2021/03/19 12:30:33;;;;;;;2.33;1.70;;;;;;;;;;4973527;28;20527;-78
2021/03/19 12:32:59;;;;;;;2.03;1.77;;;;;;;;;;4972360;28;20467;-78
2021/03/19 12:35:27;;;;;;;1.97;1.50;;;;;;;;;;4972930;28;20435;-77
2021/03/19 12:37:54;;;;;;;2.50;2.30;;;;;;;;;;4973392;28;20864;-77
2021/03/19 12:40:21;;;;;;;3.73;2.23;;;;;;;;;;4973424;28;20926;-77
2021/03/19 12:42:48;;;;;;;3.53;2.00;;;;;;;;;;4973235;28;20415;-77
2021/03/19 12:45:14;;;;;;;2.70;1.87;;;;;;;;;;4973165;28;20444;-77
2021/03/19 12:47:40;;;;;;;6.50;4.70;;;;;;;;;;4972764;28;20431;-78
2021/03/19 12:50:07;;;;;;;2.30;1.90;;;;;;;;;;4972662;28;20456;-76
2021/03/19 12:52:33;;;;;;;1.70;1.60;;;;;;;;;;4972563;28;20447;-78
2021/03/19 12:54:59;;;;;;;1.67;1.53;;;;;;;;;;4972372;28;20413;-77
2021/03/19 12:57:25;;;;;;;2.33;1.40;;;;;;;;;;4972756;28;20423;-78
2021/03/19 12:59:51;;;;;;;1.90;1.57;;;;;;;;;;4973957;28;20566;-79
2021/03/19 13:02:17;;;;;;;2.20;1.37;;;;;;;;;;4976405;28;20510;-79
2021/03/19 13:04:43;;;;;;;2.07;1.60;;;;;;;;;;4958638;28;20567;-78
2021/03/19 13:07:09;;;;;;;1.50;1.40;;;;;;;;;;4974905;28;20438;-78
2021/03/19 13:09:35;;;;;;;1.90;1.60;;;;;;;;;;4976097;28;20478;-78
2021/03/19 13:12:02;;;;;;;1.43;1.13;;;;;;;;;;4976030;28;20416;-79
2021/03/19 13:14:30;;;;;;;1.63;0.97;;;;;;;;;;4974485;28;20419;-77
2021/03/19 13:16:58;;;;;;;1.57;1.30;;;;;;;;;;4974066;28;20955;-80
2021/03/19 13:19:24;;;;;;;6.70;1.30;;;;;;;;;;4976430;28;20398;-79
2021/03/19 13:21:50;;;;;;;2.37;1.30;;;;;;;;;;4976018;28;20742;-78
2021/03/19 13:24:16;;;;;;;2.23;1.40;;;;;;;;;;4976099;28;20430;-78
2021/03/19 13:26:42;;;;;;;2.20;1.53;;;;;;;;;;4975778;28;20518;-78
2021/03/19 13:29:08;;;;;;;1.70;1.30;;;;;;;;;;4975579;28;20523;-78
2021/03/19 13:31:34;;;;;;;3.90;1.33;;;;;;;;;;4958932;28;20483;-78
2021/03/19 13:34:02;;;;;;;3.23;1.30;;;;;;;;;;4958453;28;20423;-78
2021/03/19 13:36:28;;;;;;;2.00;1.23;;;;;;;;;;4974092;28;20463;-77
2021/03/19 13:38:54;;;;;;;1.23;1.13;;;;;;;;;;4975767;28;20841;-77
2021/03/19 13:41:20;;;;;;;2.50;1.37;;;;;;;;;;4975355;28;20438;-77
2021/03/19 13:43:46;;;;;;;2.47;1.10;;;;;;;;;;4975419;28;20783;-77
2021/03/19 13:46:13;;;;;;;1.00;0.90;;;;;;;;;;4974844;28;20203;-79
2021/03/19 13:48:40;;;;;;;1.35;0.90;;;;;;;;;;4975480;28;20617;-78
2021/03/19 13:51:07;;;;;;;1.20;1.10;;;;;;;;;;4975295;28;20208;-78
2021/03/19 13:53:33;;;;;;;1.50;1.25;;;;;;;;;;4975517;28;20419;-79
2021/03/19 13:56:00;;;;;;;1.20;1.10;;;;;;;;;;4973664;28;20204;-78
2021/03/19 13:58:28;;;;;;;1.30;1.00;;;;;;;;;;4974557;28;20498;-77
2021/03/19 14:00:55;;;;;;;1.67;1.20;;;;;;;;;;4975753;28;20184;-77
2021/03/19 14:03:21;;;;;;;1.33;1.10;;;;;;;;;;4975762;28;20187;-77
2021/03/19 14:05:48;;;;;;;1.85;1.05;;;;;;;;;;4975274;28;20279;-77
2021/03/19 14:08:18;;;;;;;0.93;0.82;;;;;;;;;;4975556;28;20633;-78
2021/03/19 14:10:44;;;;;;;2.58;1.20;;;;;;;;;;4975195;28;20212;-77
2021/03/19 14:13:11;;;;;;;1.58;0.90;;;;;;;;;;4974048;28;20275;-77
2021/03/19 14:15:37;;;;;;;2.03;1.10;;;;;;;;;;4975016;28;20215;-77
2021/03/19 14:18:03;;;;;;;2.07;1.03;;;;;;;;;;4973892;28;20188;-77
2021/03/19 14:20:30;;;;;;;2.23;1.10;;;;;;;;;;4975246;28;20494;-78
2021/03/19 14:22:57;;;;;;;1.20;1.00;;;;;;;;;;4975351;28;20892;-78
2021/03/19 14:25:23;;;;;;;1.40;1.20;;;;;;;;;;4974840;28;20442;-78
2021/03/19 14:27:49;;;;;;;2.80;0.90;;;;;;;;;;4975195;28;20528;-77
2021/03/19 14:30:16;;;;;;;1.63;1.00;;;;;;;;;;4975224;28;20459;-77
2021/03/19 14:32:42;;;;;;;2.10;1.77;;;;;;;;;;4974966;28;20518;-76
2021/03/19 14:35:11;;;;;;;1.43;0.90;;;;;;;;;;4973344;28;20529;-77
2021/03/19 14:37:37;;;;;;;1.30;1.20;;;;;;;;;;4974985;28;20498;-78
2021/03/19 14:40:04;;;;;;;6.40;3.20;;;;;;;;;;4974938;28;20901;-77
2021/03/19 14:42:30;;;;;;;6.00;5.50;;;;;;;;;;4975179;28;20416;-77